»·PEaware :: SKW4214 KSNA-KPHX

SKW4214 :: KSNA-KPHX

FLIGHT INFORMATION

Flight Status: Arrived
Operator:
SkyWest Airlines
More flights by this operator :: More flights under this callsign
Pilot: Anonymous 12254 (12254)
Aircraft: CANADAIR CL-600 CRJ-200
(CRJ2)
More flights by this aircraft type
Origin: KSNA John Wayne-Orange Co
United States
Destination: KPHX Phoenix Sky Harbor Intl
United States
More flights between these airports :: More routes between these airports
Route: +STAYY3 CNERY BLH HYDRR1
File this flight plan on PilotEdge
Remarks:
Altitude:
(Current/Filed)
29,000ft
Speed:
(Current/Filed)
400kts
Departed: 04-Jul-20 04:49 PM
Arrived: 04-Jul-20 05:54 PM
Distance/Time
Traveled:
294nm/1:05
Distance/Time
To Go:
Arrived

Flight Plot

Page will automatically refresh every two minutes.

Flight plan parsing failed; only flown route is shown


Map Options




Map Legend


Flown Route
Filed Route
Departure Airport
Arrival Airport
Navaid (VOR, NDB)
Fix

Horizontal Profiles

Position Reports

Time Latitude Longitude Heading Altitude Ground
Speed
04-Jul-20 16:34 33.675700 -117.864594 118 61ft 0kts
04-Jul-20 16:35 33.675700 -117.864594 118 61ft 0kts
04-Jul-20 16:36 33.675700 -117.864594 118 61ft 0kts
04-Jul-20 16:37 33.675700 -117.864594 118 61ft 0kts
04-Jul-20 16:38 33.675700 -117.864594 118 61ft 0kts
04-Jul-20 16:39 33.675700 -117.864594 118 61ft 0kts
04-Jul-20 16:40 33.675700 -117.864594 118 61ft 0kts
04-Jul-20 16:41 33.675700 -117.864594 118 61ft 0kts
04-Jul-20 16:42 33.675700 -117.864594 118 61ft 0kts
04-Jul-20 16:43 33.675700 -117.864594 118 61ft 0kts
04-Jul-20 16:43 33.675700 -117.864594 118 61ft 0kts
04-Jul-20 16:45 33.675776 -117.864762 118 61ft 3kts
04-Jul-20 16:46 33.675875 -117.865344 26 61ft 0kts
04-Jul-20 16:47 33.677118 -117.864647 33 61ft 12kts
04-Jul-20 16:48 33.680713 -117.863226 299 61ft 6kts
04-Jul-20 16:48 33.678782 -117.866895 207 61ft 74kts
04-Jul-20 16:50 33.621634 -117.889612 184 2564ft 215kts
04-Jul-20 16:50 33.572742 -117.898868 168 4721ft 222kts
04-Jul-20 16:51 33.513835 -117.861823 136 6057ft 266kts
04-Jul-20 16:53 33.477946 -117.770274 87 7070ft 240kts
04-Jul-20 16:53 33.481254 -117.705566 76 8150ft 247kts
04-Jul-20 16:54 33.511957 -117.634193 60 9857ft 240kts
04-Jul-20 16:55 33.544847 -117.564463 60 11354ft 239kts
04-Jul-20 16:56 33.576823 -117.495763 71 12835ft 232kts
04-Jul-20 16:57 33.563621 -117.423766 108 14341ft 216kts
04-Jul-20 16:58 33.544154 -117.359205 109 15781ft 194kts
04-Jul-20 16:59 33.527044 -117.304242 111 16851ft 168kts
04-Jul-20 17:00 33.502472 -117.234137 113 18577ft 289kts
04-Jul-20 17:01 33.488735 -117.133630 64 20271ft 348kts
04-Jul-20 17:02 33.500123 -117.010342 91 21957ft 407kts
04-Jul-20 17:03 33.497710 -116.866369 90 23601ft 459kts
04-Jul-20 17:04 33.495876 -116.707366 90 25650ft 486kts
04-Jul-20 17:05 33.493851 -116.547306 90 27898ft 480kts
04-Jul-20 17:06 33.491624 -116.386980 90 29254ft 484kts
04-Jul-20 17:07 33.489284 -116.231142 91 28988ft 457kts
04-Jul-20 17:08 33.486771 -116.076625 91 28992ft 468kts
04-Jul-20 17:09 33.517802 -115.925798 70 28991ft 474kts
04-Jul-20 17:10 33.561535 -115.776048 70 28991ft 477kts
04-Jul-20 17:11 33.605187 -115.625707 70 28990ft 478kts
04-Jul-20 17:12 33.615098 -115.468593 91 28991ft 478kts
04-Jul-20 17:13 33.611115 -115.308933 91 28990ft 478kts
04-Jul-20 17:14 33.606981 -115.149284 91 28990ft 478kts
04-Jul-20 17:15 33.602647 -114.990078 91 28990ft 478kts
04-Jul-20 17:16 33.598103 -114.830214 91 28990ft 478kts
04-Jul-20 17:17 33.596874 -114.788256 91 28995ft 478kts
04-Jul-20 17:18 33.596874 -114.788256 91 28995ft 478kts
04-Jul-20 17:19 33.596874 -114.788256 91 28995ft 478kts
04-Jul-20 17:20 33.596874 -114.788256 91 28995ft 478kts
04-Jul-20 17:21 33.594890 -114.760521 99 28984ft 478kts
04-Jul-20 17:22 33.566537 -114.609008 102 28169ft 446kts
04-Jul-20 17:23 33.539250 -114.469173 102 26646ft 417kts
04-Jul-20 17:24 33.513366 -114.337331 103 25133ft 397kts
04-Jul-20 17:25 33.489310 -114.215552 103 24985ft 357kts
04-Jul-20 17:26 33.466669 -114.101574 103 24995ft 358kts
04-Jul-20 17:27 33.442901 -113.982881 103 24218ft 370kts
04-Jul-20 17:28 33.419031 -113.863974 103 23565ft 364kts
04-Jul-20 17:29 33.395550 -113.747466 103 23059ft 356kts
04-Jul-20 17:30 33.372433 -113.633343 103 22556ft 351kts
04-Jul-20 17:31 33.349034 -113.518402 103 21962ft 364kts
04-Jul-20 17:32 33.326629 -113.398833 101 21170ft 368kts
04-Jul-20 17:33 33.306021 -113.279924 101 20360ft 358kts
04-Jul-20 17:34 33.288040 -113.164753 99 19558ft 350kts
04-Jul-20 17:35 33.275464 -113.050684 89 18757ft 344kts
04-Jul-20 17:36 33.277711 -112.937016 88 17956ft 340kts
04-Jul-20 17:37 33.280488 -112.825666 86 17151ft 331kts
04-Jul-20 17:38 33.290336 -112.717637 83 16348ft 323kts
04-Jul-20 17:39 33.300270 -112.611278 83 15543ft 319kts
04-Jul-20 17:40 33.309966 -112.506694 83 14745ft 316kts
04-Jul-20 17:41 33.319536 -112.402517 83 13944ft 314kts
04-Jul-20 17:42 33.328907 -112.299928 83 13059ft 298kts
04-Jul-20 17:43 33.337390 -112.206599 83 11525ft 264kts
04-Jul-20 17:44 33.344957 -112.122716 83 10012ft 249kts
04-Jul-20 17:45 33.346853 -112.040781 90 8509ft 244kts
04-Jul-20 17:46 33.345955 -111.960156 90 7163ft 234kts
04-Jul-20 17:47 33.345049 -111.885574 90 6063ft 222kts
04-Jul-20 17:48 33.385002 -111.846282 10 4970ft 200kts
04-Jul-20 17:49 33.432549 -111.837532 346 5218ft 137kts
04-Jul-20 17:50 33.442791 -111.880319 267 4008ft 156kts
04-Jul-20 17:51 33.440724 -111.931740 270 2711ft 149kts
04-Jul-20 17:52 33.440857 -111.979115 269 1387ft 131kts
04-Jul-20 17:53 33.440440 -112.007244 210 1127ft 13kts
04-Jul-20 17:54 33.439593 -112.007348 180 1127ft 7kts
04-Jul-20 17:55 33.439031 -112.002505 89 1127ft 24kts
04-Jul-20 17:56 33.437259 -112.000114 90 1127ft 5kts

Navigation Log

Ident Type
Flight plan parsing failed, navigation log unavailable